sensor_id;sensor_type;location;lat;lon;timestamp;P1;durP1;ratioP1;P2;durP2;ratioP2
20391;SDS011;10355;53.688;10.078;2022-10-31T00:00:01;18.17;;;9.65;;
20391;SDS011;10355;53.688;10.078;2022-10-31T00:02:53;18.30;;;9.68;;
20391;SDS011;10355;53.688;10.078;2022-10-31T00:05:35;18.15;;;9.85;;
20391;SDS011;10355;53.688;10.078;2022-10-31T00:08:18;17.90;;;10.32;;
20391;SDS011;10355;53.688;10.078;2022-10-31T00:11:01;17.77;;;10.13;;
20391;SDS011;10355;53.688;10.078;2022-10-31T00:13:44;14.98;;;9.25;;
20391;SDS011;10355;53.688;10.078;2022-10-31T00:16:27;16.23;;;9.65;;
20391;SDS011;10355;53.688;10.078;2022-10-31T00:19:11;18.77;;;10.55;;
20391;SDS011;10355;53.688;10.078;2022-10-31T00:21:54;15.00;;;9.32;;
20391;SDS011;10355;53.688;10.078;2022-10-31T00:24:37;16.55;;;9.82;;
20391;SDS011;10355;53.688;10.078;2022-10-31T00:27:19;17.17;;;9.40;;
20391;SDS011;10355;53.688;10.078;2022-10-31T00:30:02;17.23;;;9.68;;
20391;SDS011;10355;53.688;10.078;2022-10-31T00:32:45;14.90;;;9.00;;
20391;SDS011;10355;53.688;10.078;2022-10-31T00:35:29;17.33;;;9.70;;
20391;SDS011;10355;53.688;10.078;2022-10-31T00:38:12;16.60;;;9.30;;
20391;SDS011;10355;53.688;10.078;2022-10-31T00:40:54;16.05;;;9.95;;
20391;SDS011;10355;53.688;10.078;2022-10-31T00:43:37;14.30;;;9.07;;
20391;SDS011;10355;53.688;10.078;2022-10-31T00:46:20;14.98;;;7.78;;
20391;SDS011;10355;53.688;10.078;2022-10-31T00:49:04;13.93;;;8.07;;
20391;SDS011;10355;53.688;10.078;2022-10-31T00:51:48;14.30;;;8.30;;
20391;SDS011;10355;53.688;10.078;2022-10-31T00:54:31;15.20;;;8.45;;
20391;SDS011;10355;53.688;10.078;2022-10-31T00:57:13;18.50;;;9.45;;
20391;SDS011;10355;53.688;10.078;2022-10-31T00:59:56;15.60;;;9.15;;
20391;SDS011;10355;53.688;10.078;2022-10-31T01:02:39;17.48;;;8.80;;
20391;SDS011;10355;53.688;10.078;2022-10-31T01:05:22;15.20;;;8.10;;
20391;SDS011;10355;53.688;10.078;2022-10-31T01:08:06;12.55;;;8.27;;
20391;SDS011;10355;53.688;10.078;2022-10-31T01:10:57;15.93;;;8.82;;
20391;SDS011;10355;53.688;10.078;2022-10-31T01:13:40;13.63;;;8.35;;
20391;SDS011;10355;53.688;10.078;2022-10-31T01:16:23;16.65;;;8.32;;
20391;SDS011;10355;53.688;10.078;2022-10-31T01:19:06;17.90;;;8.60;;
20391;SDS011;10355;53.688;10.078;2022-10-31T01:21:49;15.07;;;8.13;;
20391;SDS011;10355;53.688;10.078;2022-10-31T01:24:33;18.13;;;9.23;;
20391;SDS011;10355;53.688;10.078;2022-10-31T01:27:16;17.85;;;8.75;;
20391;SDS011;10355;53.688;10.078;2022-10-31T01:29:59;21.40;;;9.10;;
20391;SDS011;10355;53.688;10.078;2022-10-31T01:32:42;14.75;;;8.65;;
20391;SDS011;10355;53.688;10.078;2022-10-31T01:35:25;17.38;;;8.00;;
20391;SDS011;10355;53.688;10.078;2022-10-31T01:38:07;17.15;;;8.80;;
20391;SDS011;10355;53.688;10.078;2022-10-31T01:40:51;17.30;;;8.82;;
20391;SDS011;10355;53.688;10.078;2022-10-31T01:43:48;14.27;;;8.15;;
20391;SDS011;10355;53.688;10.078;2022-10-31T01:46:31;17.15;;;8.85;;
20391;SDS011;10355;53.688;10.078;2022-10-31T01:49:23;15.88;;;8.45;;
20391;SDS011;10355;53.688;10.078;2022-10-31T01:52:08;13.77;;;7.70;;
20391;SDS011;10355;53.688;10.078;2022-10-31T01:54:54;16.63;;;8.88;;
20391;SDS011;10355;53.688;10.078;2022-10-31T01:57:40;20.48;;;9.52;;
20391;SDS011;10355;53.688;10.078;2022-10-31T02:00:23;15.85;;;8.55;;
20391;SDS011;10355;53.688;10.078;2022-10-31T02:03:06;15.50;;;8.27;;
20391;SDS011;10355;53.688;10.078;2022-10-31T02:05:49;17.65;;;8.95;;
20391;SDS011;10355;53.688;10.078;2022-10-31T02:08:35;14.05;;;8.45;;
20391;SDS011;10355;53.688;10.078;2022-10-31T02:11:20;18.10;;;8.70;;
20391;SDS011;10355;53.688;10.078;2022-10-31T02:14:04;20.02;;;9.23;;
20391;SDS011;10355;53.688;10.078;2022-10-31T02:16:47;16.70;;;8.32;;
20391;SDS011;10355;53.688;10.078;2022-10-31T02:19:32;16.40;;;8.70;;
20391;SDS011;10355;53.688;10.078;2022-10-31T02:22:19;17.98;;;8.75;;
20391;SDS011;10355;53.688;10.078;2022-10-31T02:25:07;20.40;;;8.45;;
20391;SDS011;10355;53.688;10.078;2022-10-31T02:28:00;20.65;;;8.88;;
20391;SDS011;10355;53.688;10.078;2022-10-31T02:31:06;16.55;;;8.65;;
20391;SDS011;10355;53.688;10.078;2022-10-31T02:33:55;17.77;;;8.77;;
20391;SDS011;10355;53.688;10.078;2022-10-31T02:36:41;18.77;;;8.45;;
20391;SDS011;10355;53.688;10.078;2022-10-31T02:39:26;18.42;;;8.50;;
20391;SDS011;10355;53.688;10.078;2022-10-31T02:42:12;15.43;;;8.48;;
20391;SDS011;10355;53.688;10.078;2022-10-31T02:44:58;17.05;;;8.57;;
20391;SDS011;10355;53.688;10.078;2022-10-31T02:47:45;16.27;;;8.63;;
20391;SDS011;10355;53.688;10.078;2022-10-31T02:50:29;21.30;;;9.35;;
20391;SDS011;10355;53.688;10.078;2022-10-31T02:53:13;15.68;;;8.88;;
20391;SDS011;10355;53.688;10.078;2022-10-31T02:55:58;20.83;;;9.30;;
20391;SDS011;10355;53.688;10.078;2022-10-31T02:58:42;14.43;;;8.07;;
20391;SDS011;10355;53.688;10.078;2022-10-31T03:04:37;16.33;;;8.82;;
20391;SDS011;10355;53.688;10.078;2022-10-31T03:07:23;20.65;;;9.85;;
20391;SDS011;10355;53.688;10.078;2022-10-31T03:10:10;16.67;;;9.38;;
20391;SDS011;10355;53.688;10.078;2022-10-31T03:12:58;15.07;;;8.40;;
20391;SDS011;10355;53.688;10.078;2022-10-31T03:15:44;17.77;;;9.38;;
20391;SDS011;10355;53.688;10.078;2022-10-31T03:18:31;17.23;;;9.52;;
20391;SDS011;10355;53.688;10.078;2022-10-31T03:21:18;17.17;;;8.93;;
20391;SDS011;10355;53.688;10.078;2022-10-31T03:24:03;17.08;;;9.10;;
20391;SDS011;10355;53.688;10.078;2022-10-31T03:26:49;15.93;;;8.95;;
20391;SDS011;10355;53.688;10.078;2022-10-31T03:29:35;15.95;;;8.60;;
20391;SDS011;10355;53.688;10.078;2022-10-31T03:32:20;15.13;;;8.52;;
20391;SDS011;10355;53.688;10.078;2022-10-31T03:35:06;15.90;;;8.93;;
20391;SDS011;10355;53.688;10.078;2022-10-31T03:37:53;18.88;;;8.63;;
20391;SDS011;10355;53.688;10.078;2022-10-31T03:40:36;20.60;;;8.35;;
20391;SDS011;10355;53.688;10.078;2022-10-31T03:43:21;17.58;;;9.40;;
20391;SDS011;10355;53.688;10.078;2022-10-31T03:46:05;15.55;;;8.75;;
20391;SDS011;10355;53.688;10.078;2022-10-31T03:48:49;18.48;;;8.68;;
20391;SDS011;10355;53.688;10.078;2022-10-31T03:51:32;16.50;;;8.50;;
20391;SDS011;10355;53.688;10.078;2022-10-31T03:54:22;18.55;;;9.18;;
20391;SDS011;10355;53.688;10.078;2022-10-31T03:57:06;17.25;;;8.65;;
20391;SDS011;10355;53.688;10.078;2022-10-31T03:59:51;17.90;;;8.77;;
20391;SDS011;10355;53.688;10.078;2022-10-31T04:02:34;17.20;;;8.90;;
20391;SDS011;10355;53.688;10.078;2022-10-31T04:05:19;15.30;;;9.13;;
20391;SDS011;10355;53.688;10.078;2022-10-31T04:08:03;19.13;;;9.35;;
20391;SDS011;10355;53.688;10.078;2022-10-31T04:10:48;18.80;;;9.77;;
20391;SDS011;10355;53.688;10.078;2022-10-31T04:13:33;15.23;;;8.55;;
20391;SDS011;10355;53.688;10.078;2022-10-31T04:16:23;16.23;;;9.23;;
20391;SDS011;10355;53.688;10.078;2022-10-31T04:19:07;15.55;;;9.18;;
20391;SDS011;10355;53.688;10.078;2022-10-31T04:21:50;21.92;;;9.18;;
20391;SDS011;10355;53.688;10.078;2022-10-31T04:24:33;19.30;;;9.73;;
20391;SDS011;10355;53.688;10.078;2022-10-31T04:27:18;19.73;;;9.55;;
20391;SDS011;10355;53.688;10.078;2022-10-31T04:30:00;16.63;;;8.85;;
20391;SDS011;10355;53.688;10.078;2022-10-31T04:32:46;19.73;;;9.77;;
20391;SDS011;10355;53.688;10.078;2022-10-31T04:35:28;19.50;;;9.40;;
20391;SDS011;10355;53.688;10.078;2022-10-31T04:38:11;22.33;;;10.15;;
20391;SDS011;10355;53.688;10.078;2022-10-31T04:40:54;18.17;;;9.95;;
20391;SDS011;10355;53.688;10.078;2022-10-31T04:44:11;21.90;;;10.20;;
20391;SDS011;10355;53.688;10.078;2022-10-31T04:46:53;20.30;;;10.48;;
20391;SDS011;10355;53.688;10.078;2022-10-31T04:49:36;21.75;;;10.07;;
20391;SDS011;10355;53.688;10.078;2022-10-31T04:52:19;21.95;;;10.48;;
20391;SDS011;10355;53.688;10.078;2022-10-31T04:55:02;21.77;;;9.88;;
20391;SDS011;10355;53.688;10.078;2022-10-31T04:58:03;23.08;;;10.30;;
20391;SDS011;10355;53.688;10.078;2022-10-31T05:00:50;19.60;;;10.90;;
20391;SDS011;10355;53.688;10.078;2022-10-31T05:03:33;19.90;;;11.02;;
20391;SDS011;10355;53.688;10.078;2022-10-31T05:06:16;22.08;;;10.55;;
20391;SDS011;10355;53.688;10.078;2022-10-31T05:09:00;18.55;;;10.75;;
20391;SDS011;10355;53.688;10.078;2022-10-31T05:11:43;21.98;;;11.68;;
20391;SDS011;10355;53.688;10.078;2022-10-31T05:14:51;19.00;;;10.82;;
20391;SDS011;10355;53.688;10.078;2022-10-31T05:17:54;21.55;;;10.75;;
20391;SDS011;10355;53.688;10.078;2022-10-31T05:21:03;22.27;;;11.02;;
20391;SDS011;10355;53.688;10.078;2022-10-31T05:23:51;24.10;;;11.35;;
20391;SDS011;10355;53.688;10.078;2022-10-31T05:26:36;23.48;;;10.73;;
20391;SDS011;10355;53.688;10.078;2022-10-31T05:29:19;21.15;;;11.27;;
20391;SDS011;10355;53.688;10.078;2022-10-31T05:32:02;22.52;;;11.30;;
20391;SDS011;10355;53.688;10.078;2022-10-31T05:35:10;22.42;;;11.25;;
20391;SDS011;10355;53.688;10.078;2022-10-31T05:38:11;23.60;;;11.07;;
20391;SDS011;10355;53.688;10.078;2022-10-31T05:40:54;19.95;;;10.63;;
20391;SDS011;10355;53.688;10.078;2022-10-31T05:43:39;19.35;;;10.70;;
20391;SDS011;10355;53.688;10.078;2022-10-31T05:46:22;22.23;;;11.02;;
20391;SDS011;10355;53.688;10.078;2022-10-31T05:49:27;20.10;;;10.60;;
20391;SDS011;10355;53.688;10.078;2022-10-31T05:52:11;21.10;;;10.68;;
20391;SDS011;10355;53.688;10.078;2022-10-31T05:55:03;22.45;;;11.23;;
20391;SDS011;10355;53.688;10.078;2022-10-31T05:57:46;22.55;;;10.13;;
20391;SDS011;10355;53.688;10.078;2022-10-31T06:00:28;24.23;;;10.93;;
20391;SDS011;10355;53.688;10.078;2022-10-31T06:03:19;18.73;;;9.60;;
20391;SDS011;10355;53.688;10.078;2022-10-31T06:06:12;14.88;;;8.77;;
20391;SDS011;10355;53.688;10.078;2022-10-31T06:08:56;18.25;;;9.00;;
20391;SDS011;10355;53.688;10.078;2022-10-31T06:11:40;18.83;;;9.23;;
20391;SDS011;10355;53.688;10.078;2022-10-31T06:14:23;17.00;;;9.23;;
20391;SDS011;10355;53.688;10.078;2022-10-31T06:17:09;17.17;;;8.65;;
20391;SDS011;10355;53.688;10.078;2022-10-31T06:19:52;18.25;;;8.98;;
20391;SDS011;10355;53.688;10.078;2022-10-31T06:22:38;17.45;;;9.18;;
20391;SDS011;10355;53.688;10.078;2022-10-31T06:25:22;21.48;;;10.30;;
20391;SDS011;10355;53.688;10.078;2022-10-31T06:28:05;22.35;;;10.73;;
20391;SDS011;10355;53.688;10.078;2022-10-31T06:31:05;19.02;;;10.38;;
20391;SDS011;10355;53.688;10.078;2022-10-31T06:33:48;20.60;;;9.85;;
20391;SDS011;10355;53.688;10.078;2022-10-31T06:36:31;18.55;;;10.25;;
20391;SDS011;10355;53.688;10.078;2022-10-31T06:39:13;19.17;;;9.35;;
20391;SDS011;10355;53.688;10.078;2022-10-31T06:41:58;18.63;;;9.80;;
20391;SDS011;10355;53.688;10.078;2022-10-31T06:44:41;17.60;;;9.55;;
20391;SDS011;10355;53.688;10.078;2022-10-31T06:47:50;16.42;;;9.25;;
20391;SDS011;10355;53.688;10.078;2022-10-31T06:51:09;18.13;;;9.20;;
20391;SDS011;10355;53.688;10.078;2022-10-31T06:53:51;18.70;;;8.40;;
20391;SDS011;10355;53.688;10.078;2022-10-31T06:56:37;16.70;;;8.35;;
20391;SDS011;10355;53.688;10.078;2022-10-31T06:59:21;15.40;;;8.38;;
20391;SDS011;10355;53.688;10.078;2022-10-31T07:02:24;11.93;;;7.13;;
20391;SDS011;10355;53.688;10.078;2022-10-31T07:05:07;14.10;;;6.93;;
20391;SDS011;10355;53.688;10.078;2022-10-31T07:07:51;13.10;;;6.95;;
20391;SDS011;10355;53.688;10.078;2022-10-31T07:10:36;15.50;;;6.90;;
20391;SDS011;10355;53.688;10.078;2022-10-31T07:13:22;13.70;;;7.07;;
20391;SDS011;10355;53.688;10.078;2022-10-31T07:16:16;12.68;;;6.38;;
20391;SDS011;10355;53.688;10.078;2022-10-31T07:19:00;13.20;;;6.50;;
20391;SDS011;10355;53.688;10.078;2022-10-31T07:21:43;12.57;;;6.63;;
20391;SDS011;10355;53.688;10.078;2022-10-31T07:24:28;13.23;;;6.20;;
20391;SDS011;10355;53.688;10.078;2022-10-31T07:27:34;13.70;;;7.18;;
20391;SDS011;10355;53.688;10.078;2022-10-31T07:30:24;11.25;;;6.18;;
20391;SDS011;10355;53.688;10.078;2022-10-31T07:33:11;11.85;;;5.93;;
20391;SDS011;10355;53.688;10.078;2022-10-31T07:36:12;12.57;;;6.50;;
20391;SDS011;10355;53.688;10.078;2022-10-31T07:38:57;10.45;;;5.32;;
20391;SDS011;10355;53.688;10.078;2022-10-31T07:41:40;12.20;;;5.88;;
20391;SDS011;10355;53.688;10.078;2022-10-31T07:44:23;11.95;;;6.45;;
20391;SDS011;10355;53.688;10.078;2022-10-31T07:47:29;13.55;;;6.75;;
20391;SDS011;10355;53.688;10.078;2022-10-31T07:50:32;10.80;;;6.05;;
20391;SDS011;10355;53.688;10.078;2022-10-31T07:53:53;11.63;;;6.07;;
20391;SDS011;10355;53.688;10.078;2022-10-31T07:56:39;12.27;;;5.95;;
20391;SDS011;10355;53.688;10.078;2022-10-31T07:59:21;11.43;;;6.05;;
20391;SDS011;10355;53.688;10.078;2022-10-31T08:02:04;12.13;;;6.20;;
20391;SDS011;10355;53.688;10.078;2022-10-31T08:05:02;12.52;;;6.50;;
20391;SDS011;10355;53.688;10.078;2022-10-31T08:08:05;12.10;;;6.00;;
20391;SDS011;10355;53.688;10.078;2022-10-31T08:10:48;12.63;;;6.22;;
20391;SDS011;10355;53.688;10.078;2022-10-31T08:13:30;12.35;;;5.85;;
20391;SDS011;10355;53.688;10.078;2022-10-31T08:16:13;13.43;;;6.35;;
20391;SDS011;10355;53.688;10.078;2022-10-31T08:19:10;14.23;;;6.57;;
20391;SDS011;10355;53.688;10.078;2022-10-31T08:21:53;14.70;;;7.03;;
20391;SDS011;10355;53.688;10.078;2022-10-31T08:24:38;12.15;;;6.47;;
20391;SDS011;10355;53.688;10.078;2022-10-31T08:27:20;11.95;;;6.22;;
20391;SDS011;10355;53.688;10.078;2022-10-31T08:30:04;13.45;;;6.93;;
20391;SDS011;10355;53.688;10.078;2022-10-31T08:32:47;11.80;;;5.88;;
20391;SDS011;10355;53.688;10.078;2022-10-31T08:36:05;12.85;;;6.75;;
20391;SDS011;10355;53.688;10.078;2022-10-31T08:39:23;14.32;;;6.80;;
20391;SDS011;10355;53.688;10.078;2022-10-31T08:42:07;13.45;;;5.97;;
20391;SDS011;10355;53.688;10.078;2022-10-31T08:44:49;11.60;;;6.38;;
20391;SDS011;10355;53.688;10.078;2022-10-31T08:47:35;12.98;;;6.93;;
20391;SDS011;10355;53.688;10.078;2022-10-31T08:50:18;12.05;;;6.18;;
20391;SDS011;10355;53.688;10.078;2022-10-31T08:53:02;11.45;;;5.82;;
20391;SDS011;10355;53.688;10.078;2022-10-31T08:55:47;11.80;;;6.32;;
20391;SDS011;10355;53.688;10.078;2022-10-31T08:58:39;9.77;;;5.63;;
20391;SDS011;10355;53.688;10.078;2022-10-31T09:01:23;10.02;;;5.55;;
20391;SDS011;10355;53.688;10.078;2022-10-31T09:04:06;10.77;;;5.95;;
20391;SDS011;10355;53.688;10.078;2022-10-31T09:06:49;10.15;;;6.00;;
20391;SDS011;10355;53.688;10.078;2022-10-31T09:09:52;12.48;;;6.22;;
20391;SDS011;10355;53.688;10.078;2022-10-31T09:12:37;11.50;;;5.57;;
20391;SDS011;10355;53.688;10.078;2022-10-31T09:15:56;11.27;;;6.40;;
20391;SDS011;10355;53.688;10.078;2022-10-31T09:18:39;11.88;;;6.25;;
20391;SDS011;10355;53.688;10.078;2022-10-31T09:21:22;11.13;;;6.45;;
20391;SDS011;10355;53.688;10.078;2022-10-31T09:24:07;12.77;;;6.72;;
20391;SDS011;10355;53.688;10.078;2022-10-31T09:26:49;10.43;;;5.80;;
20391;SDS011;10355;53.688;10.078;2022-10-31T09:29:41;12.82;;;6.07;;
20391;SDS011;10355;53.688;10.078;2022-10-31T09:32:27;14.00;;;6.30;;
20391;SDS011;10355;53.688;10.078;2022-10-31T09:35:10;13.80;;;6.55;;
20391;SDS011;10355;53.688;10.078;2022-10-31T09:37:58;13.07;;;6.53;;
20391;SDS011;10355;53.688;10.078;2022-10-31T09:40:42;10.75;;;5.47;;
20391;SDS011;10355;53.688;10.078;2022-10-31T09:43:28;11.63;;;6.45;;
20391;SDS011;10355;53.688;10.078;2022-10-31T09:46:13;13.90;;;6.85;;
20391;SDS011;10355;53.688;10.078;2022-10-31T09:52:04;12.65;;;6.32;;
20391;SDS011;10355;53.688;10.078;2022-10-31T09:54:56;15.95;;;7.13;;
20391;SDS011;10355;53.688;10.078;2022-10-31T09:57:40;14.27;;;6.63;;
20391;SDS011;10355;53.688;10.078;2022-10-31T10:00:24;12.80;;;6.90;;
20391;SDS011;10355;53.688;10.078;2022-10-31T10:03:10;12.55;;;6.72;;
20391;SDS011;10355;53.688;10.078;2022-10-31T10:05:59;12.35;;;6.57;;
20391;SDS011;10355;53.688;10.078;2022-10-31T10:09:02;14.15;;;6.60;;
20391;SDS011;10355;53.688;10.078;2022-10-31T10:12:04;12.25;;;6.38;;
20391;SDS011;10355;53.688;10.078;2022-10-31T10:14:54;14.43;;;7.15;;
20391;SDS011;10355;53.688;10.078;2022-10-31T10:17:46;14.05;;;6.75;;
20391;SDS011;10355;53.688;10.078;2022-10-31T10:20:31;14.75;;;7.25;;
20391;SDS011;10355;53.688;10.078;2022-10-31T10:23:23;13.15;;;6.50;;
20391;SDS011;10355;53.688;10.078;2022-10-31T10:26:12;15.40;;;7.22;;
20391;SDS011;10355;53.688;10.078;2022-10-31T10:28:58;14.32;;;6.47;;
20391;SDS011;10355;53.688;10.078;2022-10-31T10:31:43;13.38;;;6.60;;
20391;SDS011;10355;53.688;10.078;2022-10-31T10:34:27;12.85;;;6.75;;
20391;SDS011;10355;53.688;10.078;2022-10-31T10:37:14;11.90;;;6.10;;
20391;SDS011;10355;53.688;10.078;2022-10-31T10:40:01;13.68;;;6.45;;
20391;SDS011;10355;53.688;10.078;2022-10-31T10:42:53;15.50;;;6.57;;
20391;SDS011;10355;53.688;10.078;2022-10-31T10:45:58;12.45;;;6.22;;
20391;SDS011;10355;53.688;10.078;2022-10-31T10:49:00;13.90;;;6.22;;
20391;SDS011;10355;53.688;10.078;2022-10-31T10:51:44;11.25;;;5.35;;
20391;SDS011;10355;53.688;10.078;2022-10-31T10:54:56;9.95;;;5.13;;
20391;SDS011;10355;53.688;10.078;2022-10-31T10:57:45;11.05;;;4.88;;
20391;SDS011;10355;53.688;10.078;2022-10-31T11:00:34;8.48;;;4.80;;
20391;SDS011;10355;53.688;10.078;2022-10-31T11:03:17;11.23;;;5.13;;
20391;SDS011;10355;53.688;10.078;2022-10-31T11:06:00;11.20;;;4.90;;
20391;SDS011;10355;53.688;10.078;2022-10-31T11:08:43;10.02;;;5.45;;
20391;SDS011;10355;53.688;10.078;2022-10-31T11:11:26;12.00;;;5.30;;
20391;SDS011;10355;53.688;10.078;2022-10-31T11:14:12;11.13;;;5.38;;
20391;SDS011;10355;53.688;10.078;2022-10-31T11:17:07;10.30;;;5.28;;
20391;SDS011;10355;53.688;10.078;2022-10-31T11:19:59;10.73;;;5.43;;
20391;SDS011;10355;53.688;10.078;2022-10-31T11:22:42;11.68;;;5.00;;
20391;SDS011;10355;53.688;10.078;2022-10-31T11:25:26;14.18;;;5.70;;
20391;SDS011;10355;53.688;10.078;2022-10-31T11:28:09;10.85;;;5.38;;
20391;SDS011;10355;53.688;10.078;2022-10-31T11:30:52;11.30;;;5.25;;
20391;SDS011;10355;53.688;10.078;2022-10-31T11:36:36;8.18;;;4.00;;
20391;SDS011;10355;53.688;10.078;2022-10-31T11:39:21;9.95;;;4.70;;
20391;SDS011;10355;53.688;10.078;2022-10-31T11:42:05;11.75;;;4.78;;
20391;SDS011;10355;53.688;10.078;2022-10-31T11:44:49;11.77;;;4.43;;
20391;SDS011;10355;53.688;10.078;2022-10-31T11:47:33;10.45;;;4.90;;
20391;SDS011;10355;53.688;10.078;2022-10-31T11:50:18;9.82;;;4.38;;
20391;SDS011;10355;53.688;10.078;2022-10-31T11:53:03;9.50;;;4.63;;
20391;SDS011;10355;53.688;10.078;2022-10-31T11:55:46;10.25;;;4.50;;
20391;SDS011;10355;53.688;10.078;2022-10-31T11:58:31;9.95;;;4.60;;
20391;SDS011;10355;53.688;10.078;2022-10-31T12:01:22;11.13;;;4.90;;
20391;SDS011;10355;53.688;10.078;2022-10-31T12:04:06;9.93;;;5.40;;
20391;SDS011;10355;53.688;10.078;2022-10-31T12:06:49;9.43;;;4.95;;
20391;SDS011;10355;53.688;10.078;2022-10-31T12:09:34;11.55;;;4.80;;
20391;SDS011;10355;53.688;10.078;2022-10-31T12:12:24;8.13;;;4.50;;
20391;SDS011;10355;53.688;10.078;2022-10-31T12:15:16;9.73;;;4.88;;
20391;SDS011;10355;53.688;10.078;2022-10-31T12:18:09;7.97;;;4.20;;
20391;SDS011;10355;53.688;10.078;2022-10-31T12:20:58;11.95;;;5.32;;
20391;SDS011;10355;53.688;10.078;2022-10-31T12:23:48;10.45;;;4.90;;
20391;SDS011;10355;53.688;10.078;2022-10-31T12:26:38;11.25;;;4.90;;
20391;SDS011;10355;53.688;10.078;2022-10-31T12:29:29;11.43;;;5.20;;
20391;SDS011;10355;53.688;10.078;2022-10-31T12:32:20;10.73;;;5.63;;
20391;SDS011;10355;53.688;10.078;2022-10-31T12:38:28;9.07;;;4.85;;
20391;SDS011;10355;53.688;10.078;2022-10-31T12:41:19;8.82;;;4.50;;
20391;SDS011;10355;53.688;10.078;2022-10-31T12:44:05;7.75;;;4.18;;
20391;SDS011;10355;53.688;10.078;2022-10-31T12:46:52;14.95;;;5.30;;
20391;SDS011;10355;53.688;10.078;2022-10-31T12:49:49;11.90;;;5.30;;
20391;SDS011;10355;53.688;10.078;2022-10-31T12:52:39;10.00;;;4.70;;
20391;SDS011;10355;53.688;10.078;2022-10-31T12:55:30;11.23;;;5.28;;
20391;SDS011;10355;53.688;10.078;2022-10-31T12:58:17;6.78;;;4.20;;
20391;SDS011;10355;53.688;10.078;2022-10-31T13:01:06;10.73;;;5.03;;
20391;SDS011;10355;53.688;10.078;2022-10-31T13:03:51;11.98;;;5.05;;
20391;SDS011;10355;53.688;10.078;2022-10-31T13:06:36;14.27;;;5.00;;
20391;SDS011;10355;53.688;10.078;2022-10-31T13:09:26;8.52;;;4.30;;
20391;SDS011;10355;53.688;10.078;2022-10-31T13:12:10;8.95;;;5.07;;
20391;SDS011;10355;53.688;10.078;2022-10-31T13:14:53;10.60;;;4.15;;
20391;SDS011;10355;53.688;10.078;2022-10-31T13:17:41;10.68;;;5.07;;
20391;SDS011;10355;53.688;10.078;2022-10-31T13:20:27;6.93;;;4.20;;
20391;SDS011;10355;53.688;10.078;2022-10-31T13:23:13;9.07;;;4.18;;
20391;SDS011;10355;53.688;10.078;2022-10-31T13:26:22;7.03;;;3.88;;
20391;SDS011;10355;53.688;10.078;2022-10-31T13:29:09;7.45;;;3.80;;
20391;SDS011;10355;53.688;10.078;2022-10-31T13:31:54;9.02;;;3.97;;
20391;SDS011;10355;53.688;10.078;2022-10-31T13:34:40;10.50;;;4.07;;
20391;SDS011;10355;53.688;10.078;2022-10-31T13:37:26;10.45;;;4.70;;
20391;SDS011;10355;53.688;10.078;2022-10-31T13:40:13;9.35;;;4.47;;
20391;SDS011;10355;53.688;10.078;2022-10-31T13:42:59;10.82;;;4.70;;
20391;SDS011;10355;53.688;10.078;2022-10-31T13:45:49;8.60;;;4.47;;
20391;SDS011;10355;53.688;10.078;2022-10-31T13:48:36;9.73;;;4.70;;
20391;SDS011;10355;53.688;10.078;2022-10-31T13:51:28;7.65;;;4.28;;
20391;SDS011;10355;53.688;10.078;2022-10-31T13:54:19;9.60;;;4.40;;
20391;SDS011;10355;53.688;10.078;2022-10-31T13:57:06;8.80;;;4.03;;
20391;SDS011;10355;53.688;10.078;2022-10-31T13:59:49;7.38;;;4.35;;
20391;SDS011;10355;53.688;10.078;2022-10-31T14:02:34;9.88;;;4.18;;
20391;SDS011;10355;53.688;10.078;2022-10-31T14:05:21;7.95;;;3.60;;
20391;SDS011;10355;53.688;10.078;2022-10-31T14:08:06;8.52;;;3.75;;
20391;SDS011;10355;53.688;10.078;2022-10-31T14:10:58;8.02;;;3.85;;
20391;SDS011;10355;53.688;10.078;2022-10-31T14:13:41;9.60;;;3.75;;
20391;SDS011;10355;53.688;10.078;2022-10-31T14:16:26;9.57;;;4.03;;
20391;SDS011;10355;53.688;10.078;2022-10-31T14:19:13;7.65;;;3.72;;
20391;SDS011;10355;53.688;10.078;2022-10-31T14:21:57;6.35;;;3.70;;
20391;SDS011;10355;53.688;10.078;2022-10-31T14:24:41;11.50;;;4.85;;
20391;SDS011;10355;53.688;10.078;2022-10-31T14:27:34;9.52;;;4.50;;
20391;SDS011;10355;53.688;10.078;2022-10-31T14:30:19;9.93;;;4.38;;
20391;SDS011;10355;53.688;10.078;2022-10-31T14:33:09;9.52;;;4.50;;
20391;SDS011;10355;53.688;10.078;2022-10-31T14:35:56;11.73;;;4.95;;
20391;SDS011;10355;53.688;10.078;2022-10-31T14:38:47;8.73;;;4.32;;
20391;SDS011;10355;53.688;10.078;2022-10-31T14:41:39;11.82;;;4.68;;
20391;SDS011;10355;53.688;10.078;2022-10-31T14:44:37;12.68;;;5.30;;
20391;SDS011;10355;53.688;10.078;2022-10-31T14:47:26;12.65;;;5.10;;
20391;SDS011;10355;53.688;10.078;2022-10-31T14:50:14;11.55;;;4.88;;
20391;SDS011;10355;53.688;10.078;2022-10-31T14:53:02;9.63;;;4.78;;
20391;SDS011;10355;53.688;10.078;2022-10-31T14:55:47;11.25;;;4.35;;
20391;SDS011;10355;53.688;10.078;2022-10-31T14:58:37;10.15;;;4.88;;
20391;SDS011;10355;53.688;10.078;2022-10-31T15:01:21;10.85;;;5.10;;
20391;SDS011;10355;53.688;10.078;2022-10-31T15:04:07;11.25;;;4.93;;
20391;SDS011;10355;53.688;10.078;2022-10-31T15:07:05;10.52;;;5.13;;
20391;SDS011;10355;53.688;10.078;2022-10-31T15:09:54;10.13;;;4.82;;
20391;SDS011;10355;53.688;10.078;2022-10-31T15:12:37;12.00;;;5.10;;
20391;SDS011;10355;53.688;10.078;2022-10-31T15:15:23;10.70;;;5.38;;
20391;SDS011;10355;53.688;10.078;2022-10-31T15:18:06;8.15;;;4.68;;
20391;SDS011;10355;53.688;10.078;2022-10-31T15:20:50;14.20;;;4.88;;
20391;SDS011;10355;53.688;10.078;2022-10-31T15:23:33;10.23;;;5.35;;
20391;SDS011;10355;53.688;10.078;2022-10-31T15:26:18;12.15;;;5.00;;
20391;SDS011;10355;53.688;10.078;2022-10-31T15:29:01;10.82;;;4.95;;
20391;SDS011;10355;53.688;10.078;2022-10-31T15:31:52;9.02;;;4.38;;
20391;SDS011;10355;53.688;10.078;2022-10-31T15:34:37;7.32;;;3.80;;
20391;SDS011;10355;53.688;10.078;2022-10-31T15:37:21;8.80;;;4.28;;
20391;SDS011;10355;53.688;10.078;2022-10-31T15:40:06;10.02;;;4.22;;
20391;SDS011;10355;53.688;10.078;2022-10-31T15:42:50;8.40;;;4.03;;
20391;SDS011;10355;53.688;10.078;2022-10-31T15:45:33;8.35;;;3.75;;
20391;SDS011;10355;53.688;10.078;2022-10-31T15:48:18;9.77;;;3.78;;
20391;SDS011;10355;53.688;10.078;2022-10-31T15:51:04;7.85;;;3.92;;
20391;SDS011;10355;53.688;10.078;2022-10-31T15:53:47;7.78;;;3.70;;
20391;SDS011;10355;53.688;10.078;2022-10-31T15:56:30;7.90;;;4.00;;
20391;SDS011;10355;53.688;10.078;2022-10-31T15:59:23;11.10;;;3.97;;
20391;SDS011;10355;53.688;10.078;2022-10-31T16:02:08;9.40;;;4.32;;
20391;SDS011;10355;53.688;10.078;2022-10-31T16:04:54;8.45;;;4.07;;
20391;SDS011;10355;53.688;10.078;2022-10-31T16:07:37;9.25;;;4.75;;
20391;SDS011;10355;53.688;10.078;2022-10-31T16:10:32;13.80;;;5.00;;
20391;SDS011;10355;53.688;10.078;2022-10-31T16:13:15;12.15;;;4.93;;
20391;SDS011;10355;53.688;10.078;2022-10-31T16:15:59;7.10;;;4.05;;
20391;SDS011;10355;53.688;10.078;2022-10-31T16:19:03;9.93;;;4.82;;
20391;SDS011;10355;53.688;10.078;2022-10-31T16:21:48;14.43;;;5.82;;
20391;SDS011;10355;53.688;10.078;2022-10-31T16:24:32;13.68;;;5.78;;
20391;SDS011;10355;53.688;10.078;2022-10-31T16:27:17;11.32;;;5.85;;
20391;SDS011;10355;53.688;10.078;2022-10-31T16:30:01;13.63;;;5.80;;
20391;SDS011;10355;53.688;10.078;2022-10-31T16:32:53;12.65;;;5.97;;